sensor_id;sensor_type;location;lat;lon;timestamp;pressure;altitude;pressure_sealevel;temperature;humidity
55679;BME280;41573;51.446;-2.018;2023-04-16T00:01:31;101996.97;;;10.29;100.00
55679;BME280;41573;51.446;-2.018;2023-04-16T00:03:56;101992.00;;;10.20;100.00
55679;BME280;41573;51.446;-2.018;2023-04-16T00:06:22;101989.59;;;10.12;100.00
55679;BME280;41573;51.446;-2.018;2023-04-16T00:08:47;102001.44;;;10.03;100.00
55679;BME280;41573;51.446;-2.018;2023-04-16T00:11:13;102008.63;;;10.01;100.00
55679;BME280;41573;51.446;-2.018;2023-04-16T00:13:41;102007.00;;;9.97;100.00
55679;BME280;41573;51.446;-2.018;2023-04-16T00:16:06;102001.66;;;9.97;100.00
55679;BME280;41573;51.446;-2.018;2023-04-16T00:18:32;102013.16;;;9.97;100.00
55679;BME280;41573;51.446;-2.018;2023-04-16T00:20:57;102011.44;;;9.96;100.00
55679;BME280;41573;51.446;-2.018;2023-04-16T00:23:23;102017.81;;;9.92;100.00
55679;BME280;41573;51.446;-2.018;2023-04-16T00:25:49;102017.75;;;9.94;100.00
55679;BME280;41573;51.446;-2.018;2023-04-16T00:28:15;102019.56;;;9.92;100.00
55679;BME280;41573;51.446;-2.018;2023-04-16T00:30:40;102014.25;;;9.92;100.00
55679;BME280;41573;51.446;-2.018;2023-04-16T00:33:07;102017.63;;;9.97;100.00
55679;BME280;41573;51.446;-2.018;2023-04-16T00:35:33;102004.28;;;9.98;100.00
55679;BME280;41573;51.446;-2.018;2023-04-16T00:37:58;102009.28;;;10.08;100.00
55679;BME280;41573;51.446;-2.018;2023-04-16T00:40:28;102002.03;;;10.11;100.00
55679;BME280;41573;51.446;-2.018;2023-04-16T00:42:53;102007.97;;;10.20;100.00
55679;BME280;41573;51.446;-2.018;2023-04-16T00:45:19;101997.31;;;10.20;100.00
55679;BME280;41573;51.446;-2.018;2023-04-16T00:47:44;102007.75;;;10.26;100.00
55679;BME280;41573;51.446;-2.018;2023-04-16T00:50:10;101999.53;;;10.32;100.00
55679;BME280;41573;51.446;-2.018;2023-04-16T00:52:36;102005.59;;;10.37;100.00
55679;BME280;41573;51.446;-2.018;2023-04-16T00:55:02;101994.81;;;10.40;100.00
55679;BME280;41573;51.446;-2.018;2023-04-16T00:57:29;101992.84;;;10.45;100.00
55679;BME280;41573;51.446;-2.018;2023-04-16T00:59:55;101995.47;;;10.47;100.00
55679;BME280;41573;51.446;-2.018;2023-04-16T01:02:20;102005.09;;;10.51;100.00
55679;BME280;41573;51.446;-2.018;2023-04-16T01:04:46;101993.66;;;10.47;100.00
55679;BME280;41573;51.446;-2.018;2023-04-16T01:07:11;102001.03;;;10.41;100.00
55679;BME280;41573;51.446;-2.018;2023-04-16T01:09:36;102006.19;;;10.45;100.00
55679;BME280;41573;51.446;-2.018;2023-04-16T01:12:02;102001.81;;;10.43;100.00
55679;BME280;41573;51.446;-2.018;2023-04-16T01:14:27;102002.13;;;10.35;100.00
55679;BME280;41573;51.446;-2.018;2023-04-16T01:16:53;101995.34;;;10.25;100.00
55679;BME280;41573;51.446;-2.018;2023-04-16T01:19:18;101987.53;;;10.20;100.00
55679;BME280;41573;51.446;-2.018;2023-04-16T01:21:43;101992.09;;;10.16;100.00
55679;BME280;41573;51.446;-2.018;2023-04-16T01:24:09;101991.34;;;10.13;100.00
55679;BME280;41573;51.446;-2.018;2023-04-16T01:26:34;102001.97;;;10.13;100.00
55679;BME280;41573;51.446;-2.018;2023-04-16T01:29:00;102003.56;;;10.18;100.00
55679;BME280;41573;51.446;-2.018;2023-04-16T01:31:25;101995.56;;;10.18;100.00
55679;BME280;41573;51.446;-2.018;2023-04-16T01:33:50;102006.09;;;10.22;100.00
55679;BME280;41573;51.446;-2.018;2023-04-16T01:36:16;102004.16;;;10.27;100.00
55679;BME280;41573;51.446;-2.018;2023-04-16T01:38:41;101994.31;;;10.29;100.00
55679;BME280;41573;51.446;-2.018;2023-04-16T01:41:07;101987.09;;;10.32;100.00
55679;BME280;41573;51.446;-2.018;2023-04-16T01:43:32;101987.66;;;10.42;100.00
55679;BME280;41573;51.446;-2.018;2023-04-16T01:48:33;101996.44;;;10.44;100.00
55679;BME280;41573;51.446;-2.018;2023-04-16T01:50:59;101987.78;;;10.39;100.00
55679;BME280;41573;51.446;-2.018;2023-04-16T01:53:24;101989.94;;;10.28;100.00
55679;BME280;41573;51.446;-2.018;2023-04-16T01:55:50;101998.06;;;10.23;100.00
55679;BME280;41573;51.446;-2.018;2023-04-16T01:58:15;101998.28;;;10.17;100.00
55679;BME280;41573;51.446;-2.018;2023-04-16T02:00:40;102003.06;;;10.07;100.00
55679;BME280;41573;51.446;-2.018;2023-04-16T02:03:06;102006.88;;;10.00;100.00
55679;BME280;41573;51.446;-2.018;2023-04-16T02:05:31;102010.41;;;10.00;100.00
55679;BME280;41573;51.446;-2.018;2023-04-16T02:07:56;102008.50;;;10.04;100.00
55679;BME280;41573;51.446;-2.018;2023-04-16T02:10:22;102002.22;;;10.07;100.00
55679;BME280;41573;51.446;-2.018;2023-04-16T02:12:47;101997.63;;;10.10;100.00
55679;BME280;41573;51.446;-2.018;2023-04-16T02:15:13;102001.06;;;10.14;100.00
55679;BME280;41573;51.446;-2.018;2023-04-16T02:17:39;101997.66;;;10.35;100.00
55679;BME280;41573;51.446;-2.018;2023-04-16T02:20:05;101989.94;;;10.28;100.00
55679;BME280;41573;51.446;-2.018;2023-04-16T02:22:32;101984.75;;;10.23;100.00
55679;BME280;41573;51.446;-2.018;2023-04-16T02:24:57;101989.09;;;10.26;100.00
55679;BME280;41573;51.446;-2.018;2023-04-16T02:27:23;101985.41;;;10.30;100.00
55679;BME280;41573;51.446;-2.018;2023-04-16T02:29:48;101983.72;;;10.27;100.00
55679;BME280;41573;51.446;-2.018;2023-04-16T02:32:13;101981.09;;;10.26;100.00
55679;BME280;41573;51.446;-2.018;2023-04-16T02:34:39;101997.91;;;10.28;100.00
55679;BME280;41573;51.446;-2.018;2023-04-16T02:37:07;101998.94;;;10.24;100.00
55679;BME280;41573;51.446;-2.018;2023-04-16T02:39:32;101997.31;;;10.20;100.00
55679;BME280;41573;51.446;-2.018;2023-04-16T02:41:58;101994.72;;;10.18;100.00
55679;BME280;41573;51.446;-2.018;2023-04-16T02:44:24;102000.09;;;10.16;100.00
55679;BME280;41573;51.446;-2.018;2023-04-16T02:46:50;101995.75;;;10.14;100.00
55679;BME280;41573;51.446;-2.018;2023-04-16T02:49:15;102000.03;;;10.18;100.00
55679;BME280;41573;51.446;-2.018;2023-04-16T02:51:41;102007.19;;;10.16;100.00
55679;BME280;41573;51.446;-2.018;2023-04-16T02:54:06;101997.56;;;10.13;100.00
55679;BME280;41573;51.446;-2.018;2023-04-16T02:56:31;101996.66;;;10.13;100.00
55679;BME280;41573;51.446;-2.018;2023-04-16T02:58:57;102004.53;;;10.16;100.00
55679;BME280;41573;51.446;-2.018;2023-04-16T03:01:22;101999.13;;;10.19;100.00
55679;BME280;41573;51.446;-2.018;2023-04-16T03:03:47;101998.06;;;10.23;100.00
55679;BME280;41573;51.446;-2.018;2023-04-16T03:06:13;101993.75;;;10.21;100.00
55679;BME280;41573;51.446;-2.018;2023-04-16T03:08:38;102000.59;;;10.28;100.00
55679;BME280;41573;51.446;-2.018;2023-04-16T03:11:04;101991.69;;;10.27;100.00
55679;BME280;41573;51.446;-2.018;2023-04-16T03:13:29;101984.69;;;10.25;100.00
55679;BME280;41573;51.446;-2.018;2023-04-16T03:15:54;101984.59;;;10.28;100.00
55679;BME280;41573;51.446;-2.018;2023-04-16T03:18:20;101979.16;;;10.31;100.00
55679;BME280;41573;51.446;-2.018;2023-04-16T03:20:50;101980.81;;;10.35;100.00
55679;BME280;41573;51.446;-2.018;2023-04-16T03:23:15;101979.94;;;10.34;100.00
55679;BME280;41573;51.446;-2.018;2023-04-16T03:25:41;101976.44;;;10.32;100.00
55679;BME280;41573;51.446;-2.018;2023-04-16T03:28:08;101972.91;;;10.32;100.00
55679;BME280;41573;51.446;-2.018;2023-04-16T03:30:33;101976.28;;;10.37;100.00
55679;BME280;41573;51.446;-2.018;2023-04-16T03:32:59;101972.38;;;10.22;100.00
55679;BME280;41573;51.446;-2.018;2023-04-16T03:35:25;101982.44;;;10.14;100.00
55679;BME280;41573;51.446;-2.018;2023-04-16T03:37:50;101998.41;;;10.14;100.00
55679;BME280;41573;51.446;-2.018;2023-04-16T03:40:16;101988.78;;;10.10;100.00
55679;BME280;41573;51.446;-2.018;2023-04-16T03:42:41;102002.97;;;10.10;100.00
55679;BME280;41573;51.446;-2.018;2023-04-16T03:45:07;101990.59;;;10.09;100.00
55679;BME280;41573;51.446;-2.018;2023-04-16T03:47:33;101999.50;;;10.08;100.00
55679;BME280;41573;51.446;-2.018;2023-04-16T03:49:58;101996.16;;;10.01;100.00
55679;BME280;41573;51.446;-2.018;2023-04-16T03:52:24;101989.38;;;10.18;100.00
55679;BME280;41573;51.446;-2.018;2023-04-16T03:54:49;101992.66;;;10.01;100.00
55679;BME280;41573;51.446;-2.018;2023-04-16T03:57:15;102002.34;;;10.04;100.00
55679;BME280;41573;51.446;-2.018;2023-04-16T03:59:40;101994.47;;;9.99;100.00
55679;BME280;41573;51.446;-2.018;2023-04-16T04:02:05;101992.09;;;9.91;100.00
55679;BME280;41573;51.446;-2.018;2023-04-16T04:04:31;101994.75;;;9.91;100.00
55679;BME280;41573;51.446;-2.018;2023-04-16T04:06:56;102005.47;;;9.90;100.00
55679;BME280;41573;51.446;-2.018;2023-04-16T04:09:24;102006.38;;;9.89;100.00
55679;BME280;41573;51.446;-2.018;2023-04-16T04:11:50;102004.69;;;9.86;100.00
55679;BME280;41573;51.446;-2.018;2023-04-16T04:14:15;102004.75;;;9.84;100.00
55679;BME280;41573;51.446;-2.018;2023-04-16T04:16:40;102001.28;;;9.82;100.00
55679;BME280;41573;51.446;-2.018;2023-04-16T04:19:06;102015.56;;;9.80;100.00
55679;BME280;41573;51.446;-2.018;2023-04-16T04:21:31;102008.28;;;9.85;100.00
55679;BME280;41573;51.446;-2.018;2023-04-16T04:23:57;102010.06;;;9.84;100.00
55679;BME280;41573;51.446;-2.018;2023-04-16T04:26:22;102005.63;;;9.85;100.00
55679;BME280;41573;51.446;-2.018;2023-04-16T04:28:47;102000.16;;;9.90;100.00
55679;BME280;41573;51.446;-2.018;2023-04-16T04:31:13;101994.81;;;9.90;100.00
55679;BME280;41573;51.446;-2.018;2023-04-16T04:33:38;102012.44;;;9.94;100.00
55679;BME280;41573;51.446;-2.018;2023-04-16T04:36:04;102012.56;;;9.89;100.00
55679;BME280;41573;51.446;-2.018;2023-04-16T04:38:30;102003.84;;;9.86;100.00
55679;BME280;41573;51.446;-2.018;2023-04-16T04:40:55;101999.47;;;9.83;100.00
55679;BME280;41573;51.446;-2.018;2023-04-16T04:43:21;102005.78;;;9.80;100.00
55679;BME280;41573;51.446;-2.018;2023-04-16T04:45:46;101997.03;;;9.77;100.00
55679;BME280;41573;51.446;-2.018;2023-04-16T04:48:13;102003.22;;;9.77;100.00
55679;BME280;41573;51.446;-2.018;2023-04-16T04:50:39;102005.03;;;9.77;100.00
55679;BME280;41573;51.446;-2.018;2023-04-16T04:53:05;102011.19;;;9.77;100.00
55679;BME280;41573;51.446;-2.018;2023-04-16T04:55:38;102011.19;;;9.77;100.00
55679;BME280;41573;51.446;-2.018;2023-04-16T04:58:04;102010.41;;;9.75;100.00
55679;BME280;41573;51.446;-2.018;2023-04-16T05:00:31;102020.00;;;9.79;100.00
55679;BME280;41573;51.446;-2.018;2023-04-16T05:02:56;102010.13;;;9.83;100.00
55679;BME280;41573;51.446;-2.018;2023-04-16T05:05:22;102022.22;;;9.92;100.00
55679;BME280;41573;51.446;-2.018;2023-04-16T05:07:47;102021.44;;;9.90;100.00
55679;BME280;41573;51.446;-2.018;2023-04-16T05:10:13;102015.19;;;9.91;100.00
55679;BME280;41573;51.446;-2.018;2023-04-16T05:12:38;102016.00;;;9.93;100.00
55679;BME280;41573;51.446;-2.018;2023-04-16T05:15:04;102019.47;;;9.95;100.00
55679;BME280;41573;51.446;-2.018;2023-04-16T05:17:30;102016.00;;;9.93;100.00
55679;BME280;41573;51.446;-2.018;2023-04-16T05:19:55;102022.13;;;9.95;100.00
55679;BME280;41573;51.446;-2.018;2023-04-16T05:22:21;102019.38;;;9.98;100.00
55679;BME280;41573;51.446;-2.018;2023-04-16T05:24:46;102022.13;;;9.95;100.00
55679;BME280;41573;51.446;-2.018;2023-04-16T05:27:12;102022.28;;;9.90;100.00
55679;BME280;41573;51.446;-2.018;2023-04-16T05:29:37;102034.63;;;9.93;100.00
55679;BME280;41573;51.446;-2.018;2023-04-16T05:32:03;102030.31;;;9.89;100.00
55679;BME280;41573;51.446;-2.018;2023-04-16T05:34:28;102038.25;;;9.90;100.00
55679;BME280;41573;51.446;-2.018;2023-04-16T05:36:54;102040.91;;;9.90;100.00
55679;BME280;41573;51.446;-2.018;2023-04-16T05:39:19;102041.69;;;9.94;100.00
55679;BME280;41573;51.446;-2.018;2023-04-16T05:41:45;102047.72;;;9.99;100.00
55679;BME280;41573;51.446;-2.018;2023-04-16T05:44:13;102048.31;;;10.07;100.00
55679;BME280;41573;51.446;-2.018;2023-04-16T05:46:39;102062.97;;;10.21;100.00
55679;BME280;41573;51.446;-2.018;2023-04-16T05:49:05;102052.31;;;10.21;100.00
55679;BME280;41573;51.446;-2.018;2023-04-16T05:51:30;102054.78;;;10.00;100.00
55679;BME280;41573;51.446;-2.018;2023-04-16T05:53:56;102066.28;;;10.00;100.00
55679;BME280;41573;51.446;-2.018;2023-04-16T05:56:21;102074.25;;;10.02;100.00
55679;BME280;41573;51.446;-2.018;2023-04-16T05:58:47;102077.78;;;10.03;100.00
55679;BME280;41573;51.446;-2.018;2023-04-16T06:01:12;102078.44;;;10.09;100.00
55679;BME280;41573;51.446;-2.018;2023-04-16T06:03:38;102073.88;;;10.13;100.00
55679;BME280;41573;51.446;-2.018;2023-04-16T06:06:03;102076.22;;;10.22;100.00
55679;BME280;41573;51.446;-2.018;2023-04-16T06:08:29;102074.06;;;10.33;100.00
55679;BME280;41573;51.446;-2.018;2023-04-16T06:10:54;102071.25;;;10.38;100.00
55679;BME280;41573;51.446;-2.018;2023-04-16T06:13:20;102065.69;;;10.44;100.00
55679;BME280;41573;51.446;-2.018;2023-04-16T06:15:46;102053.94;;;10.50;100.00
55679;BME280;41573;51.446;-2.018;2023-04-16T06:18:12;102058.19;;;10.56;100.00
55679;BME280;41573;51.446;-2.018;2023-04-16T06:20:37;102056.09;;;10.64;100.00
55679;BME280;41573;51.446;-2.018;2023-04-16T06:23:02;102050.78;;;10.64;100.00
55679;BME280;41573;51.446;-2.018;2023-04-16T06:25:28;102051.44;;;10.71;100.00
55679;BME280;41573;51.446;-2.018;2023-04-16T06:27:53;102042.47;;;10.73;100.00
55679;BME280;41573;51.446;-2.018;2023-04-16T06:30:18;102041.75;;;10.68;100.00
55679;BME280;41573;51.446;-2.018;2023-04-16T06:32:44;102042.16;;;10.81;100.00
55679;BME280;41573;51.446;-2.018;2023-04-16T06:35:11;102033.97;;;10.85;100.00
55679;BME280;41573;51.446;-2.018;2023-04-16T06:37:45;102032.25;;;10.84;100.00
55679;BME280;41573;51.446;-2.018;2023-04-16T06:40:11;102033.13;;;10.85;100.00
55679;BME280;41573;51.446;-2.018;2023-04-16T06:42:36;102043.13;;;10.78;100.00
55679;BME280;41573;51.446;-2.018;2023-04-16T06:45:01;102039.19;;;10.89;100.00
55679;BME280;41573;51.446;-2.018;2023-04-16T06:47:27;102029.34;;;10.91;100.00
55679;BME280;41573;51.446;-2.018;2023-04-16T06:49:52;102040.25;;;10.84;100.00
55679;BME280;41573;51.446;-2.018;2023-04-16T06:52:18;102046.00;;;10.96;100.00
55679;BME280;41573;51.446;-2.018;2023-04-16T06:54:43;102038.72;;;11.01;100.00
55679;BME280;41573;51.446;-2.018;2023-04-16T06:57:08;102030.00;;;10.97;100.00
55679;BME280;41573;51.446;-2.018;2023-04-16T06:59:35;102044.06;;;11.01;100.00
55679;BME280;41573;51.446;-2.018;2023-04-16T07:02:00;102038.38;;;11.10;100.00
55679;BME280;41573;51.446;-2.018;2023-04-16T07:04:26;102034.75;;;11.11;100.00
55679;BME280;41573;51.446;-2.018;2023-04-16T07:06:51;102044.44;;;11.14;100.00
55679;BME280;41573;51.446;-2.018;2023-04-16T07:09:17;102058.53;;;11.17;100.00
55679;BME280;41573;51.446;-2.018;2023-04-16T07:11:43;102049.09;;;11.09;100.00
55679;BME280;41573;51.446;-2.018;2023-04-16T07:14:08;102039.75;;;11.20;100.00
55679;BME280;41573;51.446;-2.018;2023-04-16T07:16:34;102044.81;;;11.27;100.00
55679;BME280;41573;51.446;-2.018;2023-04-16T07:19:02;102041.50;;;11.21;100.00
55679;BME280;41573;51.446;-2.018;2023-04-16T07:21:28;102044.69;;;11.30;100.00
55679;BME280;41573;51.446;-2.018;2023-04-16T07:26:27;102035.47;;;11.38;100.00
55679;BME280;41573;51.446;-2.018;2023-04-16T07:28:53;102036.91;;;11.47;100.00
55679;BME280;41573;51.446;-2.018;2023-04-16T07:31:18;102038.38;;;11.54;100.00
55679;BME280;41573;51.446;-2.018;2023-04-16T07:33:44;102036.28;;;11.63;100.00
55679;BME280;41573;51.446;-2.018;2023-04-16T07:36:09;102045.00;;;11.66;100.00
55679;BME280;41573;51.446;-2.018;2023-04-16T07:38:35;102027.06;;;11.70;100.00
55679;BME280;41573;51.446;-2.018;2023-04-16T07:41:00;102026.81;;;11.76;100.00
55679;BME280;41573;51.446;-2.018;2023-04-16T07:43:26;102018.53;;;11.82;100.00
55679;BME280;41573;51.446;-2.018;2023-04-16T07:45:51;102013.72;;;11.90;100.00
55679;BME280;41573;51.446;-2.018;2023-04-16T07:48:16;102019.78;;;11.96;100.00
55679;BME280;41573;51.446;-2.018;2023-04-16T07:50:42;102025.66;;;12.04;100.00
55679;BME280;41573;51.446;-2.018;2023-04-16T07:53:08;102028.75;;;12.15;100.00
55679;BME280;41573;51.446;-2.018;2023-04-16T07:55:33;102026.72;;;12.20;100.00
55679;BME280;41573;51.446;-2.018;2023-04-16T07:57:59;102013.91;;;12.29;100.00
55679;BME280;41573;51.446;-2.018;2023-04-16T08:00:24;102028.19;;;12.28;100.00
55679;BME280;41573;51.446;-2.018;2023-04-16T08:02:50;102027.72;;;12.38;100.00
55679;BME280;41573;51.446;-2.018;2023-04-16T08:05:16;102015.34;;;12.36;100.00
55679;BME280;41573;51.446;-2.018;2023-04-16T08:07:41;102023.00;;;12.44;100.00
55679;BME280;41573;51.446;-2.018;2023-04-16T08:10:07;102015.38;;;12.55;100.00
55679;BME280;41573;51.446;-2.018;2023-04-16T08:12:34;102041.09;;;12.57;100.00
55679;BME280;41573;51.446;-2.018;2023-04-16T08:14:59;102039.03;;;12.64;100.00
55679;BME280;41573;51.446;-2.018;2023-04-16T08:17:25;102021.25;;;12.63;100.00
55679;BME280;41573;51.446;-2.018;2023-04-16T08:19:53;102019.00;;;12.73;100.00
55679;BME280;41573;51.446;-2.018;2023-04-16T08:22:18;102015.13;;;12.80;100.00
55679;BME280;41573;51.446;-2.018;2023-04-16T08:24:44;102028.47;;;12.80;100.00
55679;BME280;41573;51.446;-2.018;2023-04-16T08:27:09;102018.59;;;12.82;100.00
55679;BME280;41573;51.446;-2.018;2023-04-16T08:29:36;102021.06;;;12.87;100.00
55679;BME280;41573;51.446;-2.018;2023-04-16T08:32:01;102016.72;;;12.84;100.00
55679;BME280;41573;51.446;-2.018;2023-04-16T08:34:27;102021.19;;;12.84;100.00
55679;BME280;41573;51.446;-2.018;2023-04-16T08:36:52;102018.59;;;12.82;100.00
55679;BME280;41573;51.446;-2.018;2023-04-16T08:39:17;102016.56;;;12.87;100.00
55679;BME280;41573;51.446;-2.018;2023-04-16T08:41:45;102015.47;;;12.91;100.00
55679;BME280;41573;51.446;-2.018;2023-04-16T08:44:20;102029.72;;;12.92;100.00
55679;BME280;41573;51.446;-2.018;2023-04-16T08:46:47;102017.88;;;12.98;100.00
55679;BME280;41573;51.446;-2.018;2023-04-16T08:49:16;102005.13;;;13.03;100.00
55679;BME280;41573;51.446;-2.018;2023-04-16T08:51:49;102010.69;;;13.17;100.00
55679;BME280;41573;51.446;-2.018;2023-04-16T08:56:46;102024.63;;;13.24;100.00
55679;BME280;41573;51.446;-2.018;2023-04-16T08:59:12;102009.31;;;13.27;100.00
55679;BME280;41573;51.446;-2.018;2023-04-16T09:01:38;102003.09;;;13.27;100.00
55679;BME280;41573;51.446;-2.018;2023-04-16T09:04:06;101987.59;;;13.34;100.00
55679;BME280;41573;51.446;-2.018;2023-04-16T09:06:32;101996.72;;;13.30;100.00
55679;BME280;41573;51.446;-2.018;2023-04-16T09:08:59;102009.59;;;13.21;100.00
55679;BME280;41573;51.446;-2.018;2023-04-16T09:11:28;102012.78;;;13.30;100.00
55679;BME280;41573;51.446;-2.018;2023-04-16T09:13:54;102012.78;;;13.30;100.00
55679;BME280;41573;51.446;-2.018;2023-04-16T09:16:22;102003.38;;;13.40;100.00
55679;BME280;41573;51.446;-2.018;2023-04-16T09:18:48;102023.53;;;13.47;100.00
55679;BME280;41573;51.446;-2.018;2023-04-16T09:21:14;102015.84;;;13.58;100.00
55679;BME280;41573;51.446;-2.018;2023-04-16T09:23:40;102019.81;;;13.69;100.00
55679;BME280;41573;51.446;-2.018;2023-04-16T09:26:06;102000.34;;;13.83;100.00
55679;BME280;41573;51.446;-2.018;2023-04-16T09:28:42;101989.25;;;13.90;100.00
55679;BME280;41573;51.446;-2.018;2023-04-16T09:31:18;101983.19;;;14.04;100.00
55679;BME280;41573;51.446;-2.018;2023-04-16T09:34:07;101991.13;;;14.06;100.00
55679;BME280;41573;51.446;-2.018;2023-04-16T09:36:34;101990.78;;;14.12;100.00
55679;BME280;41573;51.446;-2.018;2023-04-16T09:39:00;101985.44;;;14.12;100.00
55679;BME280;41573;51.446;-2.018;2023-04-16T09:41:30;101983.31;;;14.01;100.00
55679;BME280;41573;51.446;-2.018;2023-04-16T09:43:57;101960.53;;;14.10;100.00
55679;BME280;41573;51.446;-2.018;2023-04-16T09:46:33;101984.94;;;14.21;100.00
55679;BME280;41573;51.446;-2.018;2023-04-16T09:49:04;101966.03;;;14.24;100.00
55679;BME280;41573;51.446;-2.018;2023-04-16T09:51:36;101958.94;;;14.23;100.00
55679;BME280;41573;51.446;-2.018;2023-04-16T09:54:04;101960.22;;;14.16;100.00
55679;BME280;41573;51.446;-2.018;2023-04-16T09:56:29;101975.06;;;14.06;100.00
55679;BME280;41573;51.446;-2.018;2023-04-16T09:58:56;101972.97;;;14.28;100.00
55679;BME280;41573;51.446;-2.018;2023-04-16T10:01:22;101958.78;;;14.26;100.00
55679;BME280;41573;51.446;-2.018;2023-04-16T10:03:48;101981.56;;;14.18;100.00
55679;BME280;41573;51.446;-2.018;2023-04-16T10:06:17;101974.69;;;14.29;100.00
55679;BME280;41573;51.446;-2.018;2023-04-16T10:08:50;101967.16;;;14.20;100.00
55679;BME280;41573;51.446;-2.018;2023-04-16T10:11:17;101976.53;;;14.45;100.00
55679;BME280;41573;51.446;-2.018;2023-04-16T10:13:43;101989.34;;;14.40;100.00
55679;BME280;41573;51.446;-2.018;2023-04-16T10:16:09;101986.03;;;14.35;100.00
55679;BME280;41573;51.446;-2.018;2023-04-16T10:18:36;101992.16;;;14.37;100.00
55679;BME280;41573;51.446;-2.018;2023-04-16T10:21:03;101996.13;;;14.29;100.00
55679;BME280;41573;51.446;-2.018;2023-04-16T10:23:28;101985.44;;;14.45;100.00
55679;BME280;41573;51.446;-2.018;2023-04-16T10:25:55;101987.25;;;14.45;100.00
55679;BME280;41573;51.446;-2.018;2023-04-16T10:28:23;101991.59;;;14.47;100.00
55679;BME280;41573;51.446;-2.018;2023-04-16T10:30:49;101999.09;;;14.57;100.00
55679;BME280;41573;51.446;-2.018;2023-04-16T10:33:28;101997.88;;;14.46;100.00
55679;BME280;41573;51.446;-2.018;2023-04-16T10:38:47;101974.56;;;14.48;100.00
55679;BME280;41573;51.446;-2.018;2023-04-16T10:41:13;101968.31;;;14.65;100.00
55679;BME280;41573;51.446;-2.018;2023-04-16T10:43:42;101974.75;;;14.61;100.00
55679;BME280;41573;51.446;-2.018;2023-04-16T10:48:58;101970.38;;;14.76;100.00
55679;BME280;41573;51.446;-2.018;2023-04-16T10:53:50;101963.53;;;14.71;100.00
55679;BME280;41573;51.446;-2.018;2023-04-16T10:56:22;101954.63;;;14.86;100.00
55679;BME280;41573;51.446;-2.018;2023-04-16T10:58:48;101979.13;;;14.80;100.00
55679;BME280;41573;51.446;-2.018;2023-04-16T11:01:13;101974.19;;;15.04;100.00
55679;BME280;41573;51.446;-2.018;2023-04-16T11:03:47;101972.09;;;14.93;100.00
55679;BME280;41573;51.446;-2.018;2023-04-16T11:08:39;101983.63;;;14.95;100.00
55679;BME280;41573;51.446;-2.018;2023-04-16T11:11:05;101977.28;;;14.96;100.00
55679;BME280;41573;51.446;-2.018;2023-04-16T11:13:31;101989.50;;;14.86;100.00
55679;BME280;41573;51.446;-2.018;2023-04-16T11:15:57;101974.03;;;14.75;100.00
55679;BME280;41573;51.446;-2.018;2023-04-16T11:18:23;101974.53;;;14.82;100.00
55679;BME280;41573;51.446;-2.018;2023-04-16T11:20:50;101972.97;;;14.78;100.00
55679;BME280;41573;51.446;-2.018;2023-04-16T11:23:15;101952.41;;;14.78;100.00
55679;BME280;41573;51.446;-2.018;2023-04-16T11:25:41;101956.19;;;14.90;100.00
55679;BME280;41573;51.446;-2.018;2023-04-16T11:28:06;101961.38;;;14.93;100.00
55679;BME280;41573;51.446;-2.018;2023-04-16T11:30:36;101958.63;;;15.11;100.00
55679;BME280;41573;51.446;-2.018;2023-04-16T11:33:09;101953.13;;;15.28;100.00
55679;BME280;41573;51.446;-2.018;2023-04-16T11:35:35;101951.91;;;15.34;100.00
55679;BME280;41573;51.446;-2.018;2023-04-16T11:38:01;101957.97;;;15.52;100.00
55679;BME280;41573;51.446;-2.018;2023-04-16T11:40:29;101953.44;;;15.68;100.00
55679;BME280;41573;51.446;-2.018;2023-04-16T11:43:00;101950.16;;;15.79;100.00
55679;BME280;41573;51.446;-2.018;2023-04-16T11:45:25;101946.56;;;15.79;100.00
55679;BME280;41573;51.446;-2.018;2023-04-16T11:47:52;101926.41;;;15.72;100.00
55679;BME280;41573;51.446;-2.018;2023-04-16T11:50:28;101940.59;;;15.74;100.00
55679;BME280;41573;51.446;-2.018;2023-04-16T11:52:56;101928.44;;;15.52;100.00
55679;BME280;41573;51.446;-2.018;2023-04-16T11:55:22;101933.63;;;15.41;100.00
55679;BME280;41573;51.446;-2.018;2023-04-16T11:57:48;101937.06;;;15.43;100.00
55679;BME280;41573;51.446;-2.018;2023-04-16T12:00:14;101910.97;;;15.45;100.00
55679;BME280;41573;51.446;-2.018;2023-04-16T12:02:43;101930.88;;;15.26;100.00
55679;BME280;41573;51.446;-2.018;2023-04-16T12:07:55;101931.09;;;15.38;100.00
55679;BME280;41573;51.446;-2.018;2023-04-16T12:10:20;101929.78;;;15.45;100.00
55679;BME280;41573;51.446;-2.018;2023-04-16T12:12:46;101935.94;;;15.47;100.00
55679;BME280;41573;51.446;-2.018;2023-04-16T12:15:11;101944.38;;;15.41;100.00
55679;BME280;41573;51.446;-2.018;2023-04-16T12:17:37;101923.66;;;15.43;100.00
55679;BME280;41573;51.446;-2.018;2023-04-16T12:20:10;101903.00;;;15.59;100.00
55679;BME280;41573;51.446;-2.018;2023-04-16T12:22:43;101925.22;;;15.61;100.00
55679;BME280;41573;51.446;-2.018;2023-04-16T12:27:48;101915.66;;;15.72;100.00
55679;BME280;41573;51.446;-2.018;2023-04-16T12:30:16;101894.16;;;15.57;100.00
55679;BME280;41573;51.446;-2.018;2023-04-16T12:32:43;101907.75;;;15.54;100.00
55679;BME280;41573;51.446;-2.018;2023-04-16T12:35:10;101887.31;;;15.51;100.00
55679;BME280;41573;51.446;-2.018;2023-04-16T12:37:36;101922.19;;;15.37;100.00
55679;BME280;41573;51.446;-2.018;2023-04-16T12:40:02;101909.81;;;15.34;100.00
55679;BME280;41573;51.446;-2.018;2023-04-16T12:42:29;101906.69;;;15.42;100.00
55679;BME280;41573;51.446;-2.018;2023-04-16T12:45:00;101904.47;;;15.49;100.00
55679;BME280;41573;51.446;-2.018;2023-04-16T12:47:26;101889.16;;;15.51;100.00
55679;BME280;41573;51.446;-2.018;2023-04-16T12:49:51;101893.84;;;15.62;100.00
55679;BME280;41573;51.446;-2.018;2023-04-16T12:52:16;101885.34;;;15.69;100.00